Time;durP1;ratioP1;P1;durP2;ratioP2;P2;SDS_P1;SDS_P2;PMS_P1;PMS_P2;Temp;Humidity;BMP_temperature;BMP_pressure;BME280_temperature;BME280_humidity;BME280_pressure;Samples;Min_cycle;Max_cycle;Signal;HPM_P1;HPM_P2
2021/12/21 00:00:35;;;;;;;;;;;-2.90;99.90;;;;;;4970766;28;20071;-70
2021/12/21 00:03:02;;;;;;;;;;;-2.90;99.90;;;;;;4971429;28;20078;-70
2021/12/21 00:05:29;;;;;;;;;;;-2.90;99.90;;;;;;4970648;28;20052;-70
2021/12/21 00:07:58;;;;;;;;;;;-2.80;99.90;;;;;;4971136;28;20052;-71
2021/12/21 00:10:26;;;;;;;;;;;-2.80;99.90;;;;;;4971623;28;21026;-71
2021/12/21 00:13:04;;;;;;;;;;;-2.70;99.90;;;;;;4971050;28;20154;-71
2021/12/21 00:15:40;;;;;;;;;;;-2.60;99.90;;;;;;4970266;28;20122;-71
2021/12/21 00:18:20;;;;;;;;;;;-2.60;99.90;;;;;;4970971;28;20060;-70
2021/12/21 00:20:56;;;;;;;;;;;-2.50;99.90;;;;;;4971179;28;20075;-71
2021/12/21 00:23:34;;;;;;;;;;;-2.50;99.90;;;;;;4970916;28;20060;-71
2021/12/21 00:26:02;;;;;;;;;;;-2.60;99.90;;;;;;4971063;28;20061;-71
2021/12/21 00:28:34;;;;;;;;;;;-2.60;99.90;;;;;;4971235;28;20061;-71
2021/12/21 00:31:01;;;;;;;;;;;-2.60;99.90;;;;;;4971124;28;20060;-71
2021/12/21 00:33:30;;;;;;;;;;;-2.60;99.90;;;;;;4970941;28;20071;-70
2021/12/21 00:35:57;;;;;;;;;;;-2.60;99.90;;;;;;4969885;28;21249;-71
2021/12/21 00:38:24;;;;;;;;;;;-2.60;99.90;;;;;;4970413;28;20149;-71
2021/12/21 00:40:51;;;;;;;;;;;-2.70;99.90;;;;;;4971076;28;20060;-72
2021/12/21 00:43:18;;;;;;;;;;;-2.80;99.90;;;;;;4971007;28;21298;-71
2021/12/21 00:45:46;;;;;;;;;;;-2.80;99.90;;;;;;4970121;28;20080;-71
2021/12/21 00:48:15;;;;;;;;;;;-2.80;99.90;;;;;;4970212;28;21156;-71
2021/12/21 00:50:43;;;;;;;;;;;-2.90;99.90;;;;;;4970525;28;21036;-71
2021/12/21 00:53:11;;;;;;;;;;;-2.90;99.90;;;;;;4970949;28;21288;-71
2021/12/21 00:55:39;;;;;;;;;;;-3.00;99.90;;;;;;4969755;28;20060;-71
2021/12/21 00:58:06;;;;;;;;;;;-2.90;99.90;;;;;;4970027;28;20060;-71
2021/12/21 01:00:33;;;;;;;;;;;-2.90;99.90;;;;;;4969618;28;20062;-71
2021/12/21 01:03:06;;;;;;;;;;;-2.90;99.90;;;;;;4969860;28;21214;-70
2021/12/21 01:05:41;;;;;;;;;;;-3.00;99.90;;;;;;4969656;28;21112;-70
2021/12/21 01:08:14;;;;;;;;;;;-3.00;99.90;;;;;;4969473;28;21124;-70
2021/12/21 01:13:51;;;;;;;;;;;-3.00;99.90;;;;;;4961587;28;20068;-71
2021/12/21 01:16:28;;;;;;;;;;;-2.90;99.90;;;;;;4969586;28;20074;-71
2021/12/21 01:19:11;;;;;;;;;;;-3.00;99.90;;;;;;4969654;28;20069;-71
2021/12/21 01:21:43;;;;;;;;;;;-3.00;99.90;;;;;;4970110;28;20051;-70
2021/12/21 01:27:08;;;;;;;;;;;-3.10;99.90;;;;;;4964977;28;21208;-69
2021/12/21 01:29:43;;;;;;;;;;;-3.10;99.90;;;;;;4961705;28;20076;-71
2021/12/21 01:32:17;;;;;;;;;;;-3.20;99.90;;;;;;4969313;28;20275;-71
2021/12/21 01:34:54;;;;;;;;;;;-3.10;99.90;;;;;;4970005;28;20154;-71
2021/12/21 01:37:27;;;;;;;;;;;-3.20;99.90;;;;;;4969106;28;21037;-71
2021/12/21 01:40:15;;;;;;;;;;;-3.10;99.90;;;;;;4969640;28;20120;-72
2021/12/21 01:43:06;;;;;;;;;;;-3.10;99.90;;;;;;4969641;28;20059;-71
2021/12/21 01:51:03;;;;;;;;;;;-3.20;99.90;;;;;;4969647;28;20319;-69
2021/12/21 01:53:30;;;;;;;;;;;-3.30;99.90;;;;;;4969647;28;20079;-69
2021/12/21 01:56:00;;;;;;;;;;;-3.30;99.90;;;;;;4968767;28;20060;-69
2021/12/21 01:58:27;;;;;;;;;;;-3.40;99.90;;;;;;4968811;28;20075;-69
2021/12/21 02:00:54;;;;;;;;;;;-3.40;99.90;;;;;;4969263;28;20060;-69
2021/12/21 02:03:22;;;;;;;;;;;-3.40;99.90;;;;;;4968136;28;21121;-69
2021/12/21 02:05:49;;;;;;;;;;;-3.40;99.90;;;;;;4998374;22;20060;-68
2021/12/21 02:08:16;;;;;;;;;;;-3.40;99.90;;;;;;4986882;28;20108;-68
2021/12/21 02:10:44;;;;;;;;;;;-3.40;99.90;;;;;;5004311;28;21050;-68
2021/12/21 02:13:13;;;;;;;;;;;-3.40;99.90;;;;;;5003055;28;20069;-68
2021/12/21 02:15:40;;;;;;;;;;;-3.40;99.90;;;;;;5002852;28;20059;-68
2021/12/21 02:21:13;;;;;;;;;;;-3.50;99.90;;;;;;4986647;28;20055;-68
2021/12/21 02:23:41;;;;;;;;;;;-3.60;99.90;;;;;;5003622;28;20075;-68
2021/12/21 02:26:39;;;;;;;;;;;-3.60;99.90;;;;;;5003306;28;20059;-68
2021/12/21 02:29:16;;;;;;;;;;;-3.60;99.90;;;;;;5003165;28;20254;-68
2021/12/21 02:31:44;;;;;;;;;;;-3.70;99.90;;;;;;5003613;28;21323;-68
2021/12/21 02:34:11;;;;;;;;;;;-3.70;99.90;;;;;;4987181;28;20059;-68
2021/12/21 02:36:41;;;;;;;;;;;-3.70;99.90;;;;;;5003247;28;20069;-68
2021/12/21 02:39:08;;;;;;;;;;;-3.80;99.90;;;;;;5003147;28;20228;-68
2021/12/21 02:41:35;;;;;;;;;;;-3.80;99.90;;;;;;4987420;28;20141;-68
2021/12/21 02:44:02;;;;;;;;;;;-3.80;99.90;;;;;;4987080;28;20141;-68
2021/12/21 02:46:29;;;;;;;;;;;-3.80;99.90;;;;;;5002570;28;20076;-68
2021/12/21 02:48:57;;;;;;;;;;;-3.80;99.90;;;;;;5002831;28;21131;-68
2021/12/21 02:51:24;;;;;;;;;;;-3.80;99.90;;;;;;5003897;28;20126;-68
2021/12/21 02:53:52;;;;;;;;;;;-3.80;99.90;;;;;;4986898;28;20060;-68
2021/12/21 02:56:20;;;;;;;;;;;-3.80;99.90;;;;;;5001504;28;20183;-68
2021/12/21 02:58:47;;;;;;;;;;;-3.80;99.90;;;;;;5010956;28;21158;-68
2021/12/21 03:01:14;;;;;;;;;;;-3.80;99.90;;;;;;5021216;28;20100;-68
2021/12/21 03:03:42;;;;;;;;;;;-3.80;99.90;;;;;;4986921;28;20060;-67
2021/12/21 03:06:15;;;;;;;;;;;-3.80;99.90;;;;;;4986028;28;21040;-68
2021/12/21 03:08:45;;;;;;;;;;;-3.80;99.90;;;;;;4986240;28;20209;-68
2021/12/21 03:11:20;;;;;;;;;;;-3.90;99.90;;;;;;4986804;28;21147;-68
2021/12/21 03:14:05;;;;;;;;;;;-3.90;99.90;;;;;;4986984;28;20269;-68
2021/12/21 03:16:33;;;;;;;;;;;-3.90;99.90;;;;;;4986359;28;20162;-70
2021/12/21 03:19:00;;;;;;;;;;;-3.90;99.90;;;;;;4985817;28;20082;-70
2021/12/21 03:21:28;;;;;;;;;;;-3.90;99.90;;;;;;4986928;28;20069;-70
2021/12/21 03:23:55;;;;;;;;;;;-4.00;99.90;;;;;;4986926;28;20061;-70
2021/12/21 03:26:24;;;;;;;;;;;-4.00;99.90;;;;;;4986025;28;20065;-70
2021/12/21 03:28:51;;;;;;;;;;;-4.00;99.90;;;;;;4986040;28;20060;-71
2021/12/21 03:31:19;;;;;;;;;;;-4.00;99.90;;;;;;4986202;28;20060;-70
2021/12/21 03:33:46;;;;;;;;;;;-4.00;99.90;;;;;;4986240;28;21339;-71
2021/12/21 03:36:13;;;;;;;;;;;-3.90;99.90;;;;;;4985821;28;20132;-70
2021/12/21 03:38:46;;;;;;;;;;;-3.90;99.90;;;;;;4986232;28;21107;-70
2021/12/21 03:41:16;;;;;;;;;;;-3.90;99.90;;;;;;4986555;28;20261;-71
2021/12/21 03:43:44;;;;;;;;;;;-3.80;99.90;;;;;;4986261;28;21004;-71
2021/12/21 03:46:14;;;;;;;;;;;-3.80;99.90;;;;;;4986197;28;20202;-70
2021/12/21 03:48:42;;;;;;;;;;;-3.80;99.90;;;;;;4986499;28;21139;-70
2021/12/21 03:51:10;;;;;;;;;;;-3.80;99.90;;;;;;4986614;28;20060;-70
2021/12/21 03:53:37;;;;;;;;;;;-3.90;99.90;;;;;;4986542;28;21126;-70
2021/12/21 03:56:20;;;;;;;;;;;-3.90;99.90;;;;;;4985535;28;20065;-70
2021/12/21 03:58:49;;;;;;;;;;;-4.00;99.90;;;;;;4985834;28;20051;-71
2021/12/21 04:01:16;;;;;;;;;;;-4.00;99.90;;;;;;4986457;28;21238;-71
2021/12/21 04:03:43;;;;;;;;;;;-4.10;99.90;;;;;;4986778;28;20051;-70
2021/12/21 04:06:10;;;;;;;;;;;-4.10;99.90;;;;;;4985051;28;21050;-71
2021/12/21 04:08:37;;;;;;;;;;;-4.10;99.90;;;;;;4985744;28;20051;-70
2021/12/21 04:11:05;;;;;;;;;;;-4.10;99.90;;;;;;4986021;28;20257;-70
2021/12/21 04:13:32;;;;;;;;;;;-4.10;99.90;;;;;;4986545;28;20098;-70
2021/12/21 04:16:01;;;;;;;;;;;-4.10;99.90;;;;;;4986392;28;20082;-71
2021/12/21 04:18:29;;;;;;;;;;;-4.20;99.90;;;;;;4985844;28;20052;-70
2021/12/21 04:20:56;;;;;;;;;;;-4.20;99.90;;;;;;4986546;28;20091;-71
2021/12/21 04:23:23;;;;;;;;;;;-4.20;99.90;;;;;;4986232;28;20067;-70
2021/12/21 04:25:51;;;;;;;;;;;-4.10;99.90;;;;;;4985245;28;20070;-71
2021/12/21 04:28:18;;;;;;;;;;;-4.20;99.90;;;;;;4986301;28;20082;-71
2021/12/21 04:30:45;;;;;;;;;;;-4.10;99.90;;;;;;4986238;28;20141;-71
2021/12/21 04:33:13;;;;;;;;;;;-4.10;99.90;;;;;;4986757;28;20162;-70
2021/12/21 04:35:41;;;;;;;;;;;-4.10;99.90;;;;;;4986569;28;20171;-71
2021/12/21 04:38:20;;;;;;;;;;;-4.20;99.90;;;;;;4989118;28;20067;-71
2021/12/21 04:40:50;;;;;;;;;;;-4.20;99.90;;;;;;4989964;28;20061;-70
2021/12/21 04:43:17;;;;;;;;;;;-4.20;99.90;;;;;;4989896;28;20201;-70
2021/12/21 04:45:44;;;;;;;;;;;-4.20;99.90;;;;;;4988894;28;20289;-70
2021/12/21 04:48:13;;;;;;;;;;;-4.20;99.90;;;;;;4989491;28;20067;-70
2021/12/21 04:50:40;;;;;;;;;;;-4.20;99.90;;;;;;4989641;28;20083;-70
2021/12/21 04:53:08;;;;;;;;;;;-4.20;99.90;;;;;;4990035;28;20204;-70
2021/12/21 04:55:35;;;;;;;;;;;-4.20;99.90;;;;;;4988872;28;20069;-70
2021/12/21 04:58:02;;;;;;;;;;;-4.20;99.90;;;;;;4989692;28;20099;-73
2021/12/21 05:00:29;;;;;;;;;;;-4.20;99.90;;;;;;4990367;28;20477;-71
2021/12/21 05:02:56;;;;;;;;;;;-4.30;99.90;;;;;;4989798;28;20051;-71
2021/12/21 05:05:25;;;;;;;;;;;-4.30;99.90;;;;;;4987809;28;20075;-70
2021/12/21 05:08:05;;;;;;;;;;;-4.30;99.90;;;;;;4989326;28;20051;-70
2021/12/21 05:10:32;;;;;;;;;;;-4.40;99.90;;;;;;4989100;28;20080;-71
2021/12/21 05:12:59;;;;;;;;;;;-4.40;99.90;;;;;;4989442;28;20170;-71
2021/12/21 05:15:26;;;;;;;;;;;-4.40;99.90;;;;;;4988336;28;20153;-70
2021/12/21 05:17:54;;;;;;;;;;;-4.40;99.90;;;;;;4988499;28;20077;-70
2021/12/21 05:20:21;;;;;;;;;;;-4.30;99.90;;;;;;4989751;28;20091;-70
2021/12/21 05:22:49;;;;;;;;;;;-4.30;99.90;;;;;;4989838;28;20067;-71
2021/12/21 05:25:17;;;;;;;;;;;-4.30;99.90;;;;;;4989018;28;20068;-70
2021/12/21 05:27:44;;;;;;;;;;;-4.30;99.90;;;;;;4988696;28;20068;-70
2021/12/21 05:30:12;;;;;;;;;;;-4.30;99.90;;;;;;4996250;28;20261;-70
2021/12/21 05:32:39;;;;;;;;;;;-4.30;99.90;;;;;;5008692;28;20239;-71
2021/12/21 05:35:07;;;;;;;;;;;-4.30;99.90;;;;;;5009520;28;20096;-71
2021/12/21 05:37:34;;;;;;;;;;;-4.30;99.90;;;;;;5008841;28;20178;-68
2021/12/21 05:40:10;;;;;;;;;;;-4.20;99.90;;;;;;5008665;28;20108;-68
2021/12/21 05:42:38;;;;;;;;;;;-4.20;99.90;;;;;;4998767;28;20068;-68
2021/12/21 05:45:05;;;;;;;;;;;-4.20;99.90;;;;;;4997098;28;21198;-70
2021/12/21 05:47:33;;;;;;;;;;;-4.10;99.90;;;;;;4989207;28;21017;-71
2021/12/21 05:49:59;;;;;;;;;;;-4.10;99.90;;;;;;4988226;28;20066;-69
2021/12/21 05:52:27;;;;;;;;;;;-4.20;99.90;;;;;;4989282;28;20059;-69
2021/12/21 05:54:54;;;;;;;;;;;-4.20;99.90;;;;;;4988359;28;20060;-69
2021/12/21 05:57:22;;;;;;;;;;;-4.20;99.90;;;;;;4988089;28;21167;-68
2021/12/21 05:59:49;;;;;;;;;;;-4.20;99.90;;;;;;4987975;28;20060;-69
2021/12/21 06:02:17;;;;;;;;;;;-4.20;99.90;;;;;;4978939;28;20125;-69
2021/12/21 06:04:44;;;;;;;;;;;-4.10;99.90;;;;;;4986998;28;20060;-69
2021/12/21 06:07:12;;;;;;;;;;;-4.00;99.90;;;;;;4997570;28;20092;-69
2021/12/21 06:09:40;;;;;;;;;;;-3.80;99.90;;;;;;4987479;28;21180;-69
2021/12/21 06:12:13;;;;;;;;;;;-3.90;99.90;;;;;;4974063;28;20171;-70
2021/12/21 06:23:25;;;;;;;;;;;-3.80;99.90;;;;;;5004682;28;20063;-70
2021/12/21 06:25:54;;;;;;;;;;;-3.80;99.90;;;;;;4987065;28;21261;-69
2021/12/21 06:28:21;;;;;;;;;;;-3.80;99.90;;;;;;4987623;28;20081;-70
2021/12/21 06:30:51;;;;;;;;;;;-3.80;99.90;;;;;;4987675;28;20177;-70
2021/12/21 06:33:18;;;;;;;;;;;-3.80;99.90;;;;;;4988169;28;20051;-71
2021/12/21 06:35:46;;;;;;;;;;;-3.80;99.90;;;;;;4987433;28;20188;-70
2021/12/21 06:38:13;;;;;;;;;;;-3.70;99.90;;;;;;4987431;28;20121;-70
2021/12/21 06:40:40;;;;;;;;;;;-3.70;99.90;;;;;;4987832;28;21157;-70
2021/12/21 06:43:12;;;;;;;;;;;-3.70;99.90;;;;;;4987022;28;20060;-70
2021/12/21 06:45:48;;;;;;;;;;;-3.60;99.90;;;;;;4987123;28;20060;-70
2021/12/21 06:51:15;;;;;;;;;;;-3.70;99.90;;;;;;5012898;28;20090;-71
2021/12/21 06:53:43;;;;;;;;;;;-3.80;99.90;;;;;;4991827;28;20090;-70
2021/12/21 06:56:10;;;;;;;;;;;-3.90;99.90;;;;;;4995152;28;20140;-71
2021/12/21 06:58:38;;;;;;;;;;;-3.90;99.90;;;;;;4984564;28;20074;-73
2021/12/21 07:01:06;;;;;;;;;;;-3.90;99.90;;;;;;5010402;28;20068;-72
2021/12/21 07:03:35;;;;;;;;;;;-3.80;99.90;;;;;;5004544;28;20068;-73
2021/12/21 07:06:03;;;;;;;;;;;-3.90;99.90;;;;;;4995167;28;20058;-70
2021/12/21 07:08:34;;;;;;;;;;;-3.90;99.90;;;;;;5006524;28;20059;-70
2021/12/21 07:11:12;;;;;;;;;;;-4.00;99.90;;;;;;4999722;28;20638;-70
2021/12/21 07:19:11;;;;;;;;;;;-4.10;99.90;;;;;;5011502;28;20163;-79
2021/12/21 07:21:38;;;;;;;;;;;-4.20;99.90;;;;;;5005758;28;20065;-70
2021/12/21 07:24:05;;;;;;;;;;;-4.10;99.90;;;;;;5006472;28;20060;-69
2021/12/21 07:26:32;;;;;;;;;;;-4.10;99.90;;;;;;5005737;28;20082;-69
2021/12/21 07:28:59;;;;;;;;;;;-4.20;99.90;;;;;;5005985;28;20059;-69
2021/12/21 07:31:26;;;;;;;;;;;-4.20;99.90;;;;;;5006653;28;20060;-70
2021/12/21 07:33:54;;;;;;;;;;;-4.20;99.90;;;;;;5006637;28;20177;-69
2021/12/21 07:36:22;;;;;;;;;;;-4.20;99.90;;;;;;5006227;28;20314;-69
2021/12/21 07:38:49;;;;;;;;;;;-4.10;99.90;;;;;;4999656;28;21251;-69
2021/12/21 07:41:16;;;;;;;;;;;-4.10;99.90;;;;;;4982332;28;20074;-69
2021/12/21 07:43:44;;;;;;;;;;;-4.10;99.90;;;;;;4983083;28;20174;-69
2021/12/21 07:46:11;;;;;;;;;;;-4.00;99.90;;;;;;4981722;28;20235;-69
2021/12/21 07:48:40;;;;;;;;;;;-4.10;99.90;;;;;;4981221;28;20051;-70
2021/12/21 07:51:08;;;;;;;;;;;-4.00;99.90;;;;;;5005925;28;20067;-69
2021/12/21 07:53:37;;;;;;;;;;;-4.00;99.90;;;;;;4991266;28;21154;-70
2021/12/21 07:56:04;;;;;;;;;;;-4.00;99.90;;;;;;4994057;28;20075;-69
2021/12/21 07:58:31;;;;;;;;;;;-4.00;99.90;;;;;;4987893;28;20061;-70
2021/12/21 08:00:59;;;;;;;;;;;-3.90;99.90;;;;;;5008559;28;20088;-69
2021/12/21 08:03:27;;;;;;;;;;;-4.00;99.90;;;;;;4992000;28;20169;-70
2021/12/21 08:05:57;;;;;;;;;;;-3.90;99.90;;;;;;4993148;28;20141;-70
2021/12/21 08:08:27;;;;;;;;;;;-3.90;99.90;;;;;;4985360;28;20051;-70
2021/12/21 08:11:09;;;;;;;;;;;-3.90;99.90;;;;;;4981432;28;20074;-69
2021/12/21 08:13:36;;;;;;;;;;;-3.90;99.90;;;;;;4971675;28;20052;-69
2021/12/21 08:16:04;;;;;;;;;;;-3.80;99.90;;;;;;4969620;28;20060;-70
2021/12/21 08:18:31;;;;;;;;;;;-3.80;99.90;;;;;;4975092;28;20165;-69
2021/12/21 08:20:58;;;;;;;;;;;-3.80;99.90;;;;;;5002150;28;20060;-70
2021/12/21 08:23:26;;;;;;;;;;;-3.70;99.90;;;;;;4987692;28;20170;-70
2021/12/21 08:25:54;;;;;;;;;;;-3.70;99.90;;;;;;4990166;28;20065;-69
2021/12/21 08:28:23;;;;;;;;;;;-3.60;99.90;;;;;;5009240;28;20496;-69
2021/12/21 08:30:50;;;;;;;;;;;-3.40;99.90;;;;;;4981308;28;20149;-70
2021/12/21 08:33:17;;;;;;;;;;;-3.30;99.90;;;;;;4987301;28;20067;-70
2021/12/21 08:35:46;;;;;;;;;;;-3.20;99.90;;;;;;4990990;28;20074;-70
2021/12/21 08:38:16;;;;;;;;;;;-3.10;99.90;;;;;;4991421;28;20068;-69
2021/12/21 08:40:45;;;;;;;;;;;-3.00;99.90;;;;;;4988270;28;20186;-69
2021/12/21 08:43:13;;;;;;;;;;;-2.90;99.90;;;;;;4988756;28;20076;-70
2021/12/21 08:45:43;;;;;;;;;;;-2.10;99.90;;;;;;4994626;28;20172;-71
2021/12/21 08:48:11;;;;;;;;;;;-0.90;99.90;;;;;;4990639;28;21093;-70
2021/12/21 08:50:38;;;;;;;;;;;-0.70;99.90;;;;;;4989147;28;21080;-69
2021/12/21 08:53:06;;;;;;;;;;;-0.90;99.90;;;;;;4987975;28;20060;-69
2021/12/21 08:55:33;;;;;;;;;;;-1.20;99.90;;;;;;4988630;28;20154;-70
2021/12/21 08:58:00;;;;;;;;;;;-1.50;99.90;;;;;;4987906;28;20077;-70
2021/12/21 09:00:27;;;;;;;;;;;-1.60;99.90;;;;;;4982131;28;20060;-71
2021/12/21 09:02:56;;;;;;;;;;;-1.70;99.90;;;;;;5006745;28;20170;-71
2021/12/21 09:05:27;;;;;;;;;;;-1.70;99.90;;;;;;4988933;28;20131;-70
2021/12/21 09:07:54;;;;;;;;;;;-1.80;99.90;;;;;;4999254;28;20060;-71
2021/12/21 09:10:21;;;;;;;;;;;-1.80;99.90;;;;;;5007025;28;21063;-71
2021/12/21 09:12:49;;;;;;;;;;;-1.70;99.90;;;;;;4988639;28;20150;-71
2021/12/21 09:15:18;;;;;;;;;;;-1.70;99.90;;;;;;4983846;28;21539;-68
2021/12/21 09:17:47;;;;;;;;;;;-1.60;99.90;;;;;;4969532;28;21081;-68
2021/12/21 09:20:17;;;;;;;;;;;-1.50;99.90;;;;;;4984842;28;20205;-68
2021/12/21 09:22:44;;;;;;;;;;;-1.40;99.90;;;;;;4997784;28;21065;-68
2021/12/21 09:25:11;;;;;;;;;;;-1.30;99.90;;;;;;4993948;28;20060;-68
2021/12/21 09:27:39;;;;;;;;;;;-1.20;99.90;;;;;;4989234;28;20069;-68
2021/12/21 09:30:08;;;;;;;;;;;-1.10;99.90;;;;;;4988747;28;21087;-68
2021/12/21 09:32:35;;;;;;;;;;;-1.00;99.90;;;;;;4993366;28;20141;-68
2021/12/21 09:35:02;;;;;;;;;;;-0.80;99.90;;;;;;5002125;28;20060;-68
2021/12/21 09:37:32;;;;;;;;;;;-0.70;99.90;;;;;;4998301;28;20186;-68
2021/12/21 09:40:00;;;;;;;;;;;-0.60;99.90;;;;;;4983162;28;20350;-69
2021/12/21 09:42:28;;;;;;;;;;;-0.40;99.90;;;;;;5000069;28;20149;-68
2021/12/21 09:44:55;;;;;;;;;;;-0.30;99.90;;;;;;4990464;28;20092;-68
2021/12/21 09:47:22;;;;;;;;;;;-0.20;99.90;;;;;;5003546;28;20094;-70
2021/12/21 09:49:50;;;;;;;;;;;-0.10;99.90;;;;;;4986361;28;21137;-71
2021/12/21 09:52:19;;;;;;;;;;;0.00;99.90;;;;;;5009730;28;20083;-68
2021/12/21 09:54:48;;;;;;;;;;;0.10;99.90;;;;;;4987276;28;20076;-68
2021/12/21 09:57:17;;;;;;;;;;;0.20;99.90;;;;;;5008700;28;20166;-68
2021/12/21 09:59:44;;;;;;;;;;;0.30;99.90;;;;;;5002969;28;20080;-68
2021/12/21 10:02:11;;;;;;;;;;;0.40;99.90;;;;;;5008237;28;20068;-68
2021/12/21 10:04:46;;;;;;;;;;;0.40;99.90;;;;;;5007744;28;20068;-68
2021/12/21 10:07:14;;;;;;;;;;;0.50;99.90;;;;;;5002803;28;20077;-70
2021/12/21 10:09:43;;;;;;;;;;;0.50;99.90;;;;;;4992817;28;20093;-71
2021/12/21 10:12:13;;;;;;;;;;;0.50;99.90;;;;;;4971314;28;20309;-71
2021/12/21 10:14:41;;;;;;;;;;;0.60;99.90;;;;;;4967531;28;20069;-68
2021/12/21 10:17:09;;;;;;;;;;;0.70;99.90;;;;;;4967328;28;20069;-71
2021/12/21 10:19:36;;;;;;;;;;;0.70;99.90;;;;;;4967463;28;20097;-68
2021/12/21 10:22:11;;;;;;;;;;;0.80;99.90;;;;;;4967725;28;20170;-69
2021/12/21 10:24:44;;;;;;;;;;;0.90;99.90;;;;;;4968883;28;20108;-69
2021/12/21 10:27:13;;;;;;;;;;;1.00;99.90;;;;;;4967037;28;20078;-69
2021/12/21 10:29:41;;;;;;;;;;;1.20;99.90;;;;;;4966076;28;20108;-70
2021/12/21 10:32:16;;;;;;;;;;;1.40;99.90;;;;;;4967121;28;20108;-69
2021/12/21 10:34:50;;;;;;;;;;;1.60;99.90;;;;;;4966969;28;20069;-70
2021/12/21 10:37:21;;;;;;;;;;;2.10;99.90;;;;;;4967180;28;20081;-69
2021/12/21 10:39:48;;;;;;;;;;;3.60;99.90;;;;;;4966934;28;21133;-70
2021/12/21 10:42:17;;;;;;;;;;;7.30;99.90;;;;;;4966541;28;20080;-70
2021/12/21 10:44:46;;;;;;;;;;;10.40;99.90;;;;;;4966278;28;20134;-70
2021/12/21 10:47:13;;;;;;;;;;;12.60;99.90;;;;;;4984937;28;20085;-70
2021/12/21 10:49:41;;;;;;;;;;;13.90;99.90;;;;;;4998742;28;20076;-68
2021/12/21 10:52:09;;;;;;;;;;;15.10;99.90;;;;;;4994313;28;20084;-69
2021/12/21 10:54:37;;;;;;;;;;;15.00;99.90;;;;;;4998318;28;20084;-73
2021/12/21 10:57:06;;;;;;;;;;;14.90;99.90;;;;;;5006494;28;20178;-68
2021/12/21 10:59:36;;;;;;;;;;;15.30;99.90;;;;;;5004485;28;21131;-70
2021/12/21 11:02:07;;;;;;;;;;;15.70;99.90;;;;;;4998787;28;20076;-69
2021/12/21 11:04:37;;;;;;;;;;;16.20;99.90;;;;;;5000814;28;20529;-70
2021/12/21 11:07:22;;;;;;;;;;;16.80;99.90;;;;;;5006060;28;20075;-70
2021/12/21 11:09:54;;;;;;;;;;;17.30;99.90;;;;;;5007131;28;20199;-69
2021/12/21 11:12:22;;;;;;;;;;;17.50;99.90;;;;;;4989047;28;20157;-70
2021/12/21 11:14:53;;;;;;;;;;;17.10;99.90;;;;;;4986635;28;20216;-69
2021/12/21 11:17:21;;;;;;;;;;;17.10;99.90;;;;;;4987106;28;20069;-70
2021/12/21 11:19:48;;;;;;;;;;;17.20;99.90;;;;;;4986103;28;20075;-70
2021/12/21 11:22:16;;;;;;;;;;;17.20;99.90;;;;;;4987300;28;20913;-70
2021/12/21 11:24:44;;;;;;;;;;;17.70;99.90;;;;;;4986807;28;20179;-70
2021/12/21 11:27:13;;;;;;;;;;;17.40;99.90;;;;;;4986663;28;20199;-70
2021/12/21 11:29:41;;;;;;;;;;;17.50;99.90;;;;;;4986717;28;20284;-70
2021/12/21 11:32:11;;;;;;;;;;;17.30;99.90;;;;;;4986555;28;21195;-70
2021/12/21 11:34:56;;;;;;;;;;;18.00;99.90;;;;;;4987293;28;20159;-70
2021/12/21 11:37:23;;;;;;;;;;;18.30;99.90;;;;;;4987129;28;20060;-70
2021/12/21 11:39:50;;;;;;;;;;;18.50;99.90;;;;;;4986823;28;20048;-70
2021/12/21 11:42:21;;;;;;;;;;;18.30;99.90;;;;;;4987651;28;21285;-69
2021/12/21 11:44:52;;;;;;;;;;;17.80;99.90;;;;;;4986002;28;20069;-69
2021/12/21 11:47:26;;;;;;;;;;;18.20;99.90;;;;;;4986760;28;21042;-70
2021/12/21 11:49:55;;;;;;;;;;;18.60;99.90;;;;;;4986762;28;20254;-70
2021/12/21 11:52:23;;;;;;;;;;;19.10;99.90;;;;;;4986727;28;20341;-70
2021/12/21 11:54:52;;;;;;;;;;;18.90;99.90;;;;;;4986459;28;20170;-70
2021/12/21 11:57:21;;;;;;;;;;;18.60;99.90;;;;;;4985896;28;20060;-70
2021/12/21 11:59:48;;;;;;;;;;;18.20;99.90;;;;;;4985752;28;20262;-70
2021/12/21 12:02:16;;;;;;;;;;;18.50;99.90;;;;;;5008203;28;20085;-69
2021/12/21 12:04:54;;;;;;;;;;;18.60;99.90;;;;;;5005551;28;20166;-71
2021/12/21 12:07:22;;;;;;;;;;;18.30;99.90;;;;;;5014466;28;21018;-70
2021/12/21 12:10:02;;;;;;;;;;;18.60;99.90;;;;;;4989575;28;21213;-70
2021/12/21 12:12:30;;;;;;;;;;;18.80;99.90;;;;;;4967073;28;20459;-69
2021/12/21 12:15:00;;;;;;;;;;;20.00;99.90;;;;;;4967043;28;20083;-70
2021/12/21 12:17:28;;;;;;;;;;;20.40;99.90;;;;;;4965960;28;20163;-69
2021/12/21 12:20:02;;;;;;;;;;;20.20;99.90;;;;;;4966218;28;20082;-71
2021/12/21 12:22:33;;;;;;;;;;;19.80;99.90;;;;;;4992497;28;20279;-70
2021/12/21 12:25:00;;;;;;;;;;;19.70;99.90;;;;;;5002337;28;20075;-69
2021/12/21 12:27:28;;;;;;;;;;;19.90;99.90;;;;;;5002132;28;20914;-69
2021/12/21 12:29:56;;;;;;;;;;;20.00;99.90;;;;;;4987638;28;21193;-70
2021/12/21 12:32:31;;;;;;;;;;;20.80;99.90;;;;;;4996460;28;20113;-69
2021/12/21 12:35:02;;;;;;;;;;;21.20;99.90;;;;;;4992335;28;20059;-69
2021/12/21 12:37:29;;;;;;;;;;;21.40;99.90;;;;;;4983394;28;20077;-69
2021/12/21 12:39:57;;;;;;;;;;;21.10;99.90;;;;;;4997751;28;21075;-70
2021/12/21 12:42:25;;;;;;;;;;;20.90;99.90;;;;;;4986931;28;21110;-69
2021/12/21 12:45:03;;;;;;;;;;;20.60;99.90;;;;;;4986535;28;20069;-69
2021/12/21 12:47:30;;;;;;;;;;;20.30;99.90;;;;;;4986690;28;20069;-69
2021/12/21 12:49:57;;;;;;;;;;;20.90;99.90;;;;;;4986537;28;20097;-69
2021/12/21 12:52:30;;;;;;;;;;;21.50;99.90;;;;;;4987587;28;20156;-69
2021/12/21 12:54:58;;;;;;;;;;;20.90;99.90;;;;;;4993016;28;20170;-69
2021/12/21 12:57:30;;;;;;;;;;;20.40;99.90;;;;;;5005887;28;20124;-69
2021/12/21 12:59:58;;;;;;;;;;;20.50;99.90;;;;;;5008570;28;21126;-69
2021/12/21 13:02:26;;;;;;;;;;;20.50;99.90;;;;;;5006796;28;20059;-69
2021/12/21 13:04:53;;;;;;;;;;;20.60;99.90;;;;;;4996341;28;21089;-69
2021/12/21 13:07:28;;;;;;;;;;;20.40;99.90;;;;;;4995513;28;20097;-71
2021/12/21 13:10:06;;;;;;;;;;;21.00;99.90;;;;;;4996654;28;20100;-69
2021/12/21 13:12:34;;;;;;;;;;;21.70;99.90;;;;;;4987347;28;20104;-70
2021/12/21 13:15:01;;;;;;;;;;;21.20;99.90;;;;;;4987157;28;20060;-70
2021/12/21 13:17:29;;;;;;;;;;;22.00;99.90;;;;;;4986826;28;20083;-71
2021/12/21 13:19:56;;;;;;;;;;;22.50;99.90;;;;;;4986360;28;20097;-69
2021/12/21 13:22:23;;;;;;;;;;;22.10;99.90;;;;;;4986810;28;20061;-71
2021/12/21 13:24:53;;;;;;;;;;;22.00;99.90;;;;;;4985777;28;20083;-71
2021/12/21 13:27:21;;;;;;;;;;;22.50;99.90;;;;;;4986153;28;20083;-70
2021/12/21 13:29:49;;;;;;;;;;;22.30;99.90;;;;;;4985651;28;20082;-71
2021/12/21 13:32:17;;;;;;;;;;;21.50;99.90;;;;;;4986486;28;20079;-70
2021/12/21 13:34:46;;;;;;;;;;;20.60;99.90;;;;;;4985371;28;20173;-70
2021/12/21 13:37:16;;;;;;;;;;;20.60;99.90;;;;;;4985736;28;20171;-70
2021/12/21 13:39:44;;;;;;;;;;;20.60;99.90;;;;;;4994796;28;20085;-70
2021/12/21 13:42:15;;;;;;;;;;;20.80;99.90;;;;;;5003589;28;20068;-70
2021/12/21 13:44:44;;;;;;;;;;;20.60;99.90;;;;;;5009798;28;20059;-70
2021/12/21 13:47:17;;;;;;;;;;;20.90;99.90;;;;;;5008800;28;20271;-70
2021/12/21 13:49:57;;;;;;;;;;;20.10;99.90;;;;;;5008678;28;20196;-70
2021/12/21 13:52:26;;;;;;;;;;;20.30;99.90;;;;;;4998413;28;20117;-70
2021/12/21 13:54:53;;;;;;;;;;;20.20;99.90;;;;;;4990996;28;20172;-71
2021/12/21 13:57:22;;;;;;;;;;;19.80;99.90;;;;;;4987706;28;21206;-71
2021/12/21 13:59:50;;;;;;;;;;;19.60;99.90;;;;;;4987398;28;20076;-71
2021/12/21 14:02:25;;;;;;;;;;;19.20;99.90;;;;;;4987530;28;21120;-70
2021/12/21 14:05:00;;;;;;;;;;;18.80;99.90;;;;;;4988021;28;20060;-70
2021/12/21 14:07:28;;;;;;;;;;;19.20;99.90;;;;;;4984608;28;20228;-71
2021/12/21 14:10:12;;;;;;;;;;;19.40;99.90;;;;;;5004699;28;20075;-72
2021/12/21 14:12:41;;;;;;;;;;;19.20;99.90;;;;;;4988264;28;20099;-72
2021/12/21 14:15:09;;;;;;;;;;;20.00;99.90;;;;;;5014315;28;21085;-71
2021/12/21 14:17:36;;;;;;;;;;;20.40;99.90;;;;;;5002786;28;20093;-70
2021/12/21 14:20:05;;;;;;;;;;;20.00;99.90;;;;;;5006882;28;20076;-70
2021/12/21 14:22:32;;;;;;;;;;;18.90;99.90;;;;;;5007567;28;20069;-70
2021/12/21 14:24:59;;;;;;;;;;;17.80;99.90;;;;;;5007155;28;20090;-70
2021/12/21 14:27:27;;;;;;;;;;;17.30;99.90;;;;;;4992608;28;20200;-71
2021/12/21 14:30:08;;;;;;;;;;;17.50;99.90;;;;;;4986897;28;20102;-70
2021/12/21 14:33:04;;;;;;;;;;;16.70;99.90;;;;;;5014564;28;20077;-70
2021/12/21 14:35:34;;;;;;;;;;;16.20;99.90;;;;;;4967065;28;20069;-71
2021/12/21 14:38:06;;;;;;;;;;;16.00;99.90;;;;;;4983422;28;20069;-71
2021/12/21 14:40:41;;;;;;;;;;;15.50;99.90;;;;;;4996737;28;20119;-70
2021/12/21 14:43:08;;;;;;;;;;;15.10;99.90;;;;;;4994972;28;20172;-71
2021/12/21 14:45:36;;;;;;;;;;;14.60;99.90;;;;;;4986408;28;20077;-70
2021/12/21 14:48:04;;;;;;;;;;;14.30;99.90;;;;;;4986627;28;20083;-71
2021/12/21 14:50:40;;;;;;;;;;;14.10;99.90;;;;;;4986877;28;20140;-70
2021/12/21 14:53:15;;;;;;;;;;;13.80;99.90;;;;;;4986667;28;20280;-71
2021/12/21 14:55:42;;;;;;;;;;;13.80;99.90;;;;;;4986381;28;21151;-70
2021/12/21 14:58:10;;;;;;;;;;;13.10;99.90;;;;;;4986537;28;20132;-70
2021/12/21 15:00:41;;;;;;;;;;;11.90;99.90;;;;;;4986767;28;21293;-69
2021/12/21 15:03:09;;;;;;;;;;;9.40;99.90;;;;;;4987310;28;20122;-70